Time;durP1;ratioP1;P1;durP2;ratioP2;P2;SDS_P1;SDS_P2;PMS_P1;PMS_P2;Temp;Humidity;BMP_temperature;BMP_pressure;BME280_temperature;BME280_humidity;BME280_pressure;Samples;Min_cycle;Max_cycle;Signal;HPM_P1;HPM_P2
2023/12/26 00:02:13;;;;;;;2.88;1.35;;;22.90;54.30;;;;;;5113198;28;20040;-77
2023/12/26 00:04:40;;;;;;;1.00;0.88;;;22.80;54.20;;;;;;5113316;28;20128;-77
2023/12/26 00:07:06;;;;;;;1.63;1.52;;;22.80;54.20;;;;;;5091152;28;20036;-78
2023/12/26 00:09:32;;;;;;;1.65;1.55;;;22.80;54.20;;;;;;5112851;28;20363;-78
2023/12/26 00:11:58;;;;;;;1.63;1.20;;;22.70;54.20;;;;;;5103048;28;20038;-78
2023/12/26 00:14:24;;;;;;;1.67;1.13;;;22.80;54.20;;;;;;5113660;28;20073;-78
2023/12/26 00:16:50;;;;;;;1.75;1.42;;;22.80;54.20;;;;;;5036529;28;20151;-78
2023/12/26 00:19:16;;;;;;;2.83;1.35;;;22.70;54.20;;;;;;5069456;28;20455;-79
2023/12/26 00:21:42;;;;;;;3.33;1.20;;;22.70;54.20;;;;;;5036545;28;20056;-78
2023/12/26 00:24:09;;;;;;;1.55;1.10;;;22.80;54.20;;;;;;5069707;28;20072;-78
2023/12/26 00:26:38;;;;;;;1.00;0.98;;;22.70;54.20;;;;;;5036319;28;20028;-78
2023/12/26 00:29:05;;;;;;;1.38;1.27;;;22.80;54.20;;;;;;5051558;28;20040;-79
2023/12/26 00:31:32;;;;;;;1.55;1.13;;;22.70;54.20;;;;;;5036218;28;20048;-77
2023/12/26 00:33:58;;;;;;;1.20;1.10;;;22.80;54.10;;;;;;5069446;28;20170;-78
2023/12/26 00:36:24;;;;;;;2.83;1.52;;;22.90;54.20;;;;;;5069834;28;20032;-78
2023/12/26 00:38:50;;;;;;;1.77;1.50;;;22.70;54.10;;;;;;5065794;28;20075;-76
2023/12/26 00:41:17;;;;;;;1.92;1.10;;;22.80;54.10;;;;;;5051822;28;20054;-78
2023/12/26 00:43:43;;;;;;;1.10;1.00;;;22.90;54.10;;;;;;5052918;28;20051;-78
2023/12/26 00:46:09;;;;;;;3.15;1.13;;;22.70;54.00;;;;;;5035757;28;20082;-77
2023/12/26 00:48:36;;;;;;;4.65;1.90;;;22.80;54.00;;;;;;5052769;28;20552;-79
2023/12/26 00:51:03;;;;;;;1.40;1.15;;;22.80;54.00;;;;;;5069423;28;20058;-75
2023/12/26 00:53:29;;;;;;;1.60;1.30;;;23.00;54.00;;;;;;5056478;28;20040;-77
2023/12/26 00:55:57;;;;;;;1.50;1.40;;;22.90;54.00;;;;;;5084870;28;20504;-78
2023/12/26 00:58:23;;;;;;;5.57;1.20;;;22.80;53.90;;;;;;5112177;28;20368;-78
2023/12/26 01:00:49;;;;;;;1.63;1.10;;;23.00;53.90;;;;;;5111070;28;20040;-78
2023/12/26 01:03:15;;;;;;;1.30;1.05;;;23.10;54.00;;;;;;5111790;28;20039;-78
2023/12/26 01:05:41;;;;;;;1.20;0.90;;;23.00;53.80;;;;;;5112370;28;20365;-78
2023/12/26 01:08:09;;;;;;;1.42;1.20;;;23.00;53.80;;;;;;5075536;28;20509;-79
2023/12/26 01:10:35;;;;;;;1.63;1.45;;;23.00;53.80;;;;;;5109262;28;20387;-78
2023/12/26 01:13:01;;;;;;;1.30;1.20;;;23.00;53.80;;;;;;5111691;28;20448;-76
2023/12/26 01:15:27;;;;;;;2.92;0.98;;;23.10;53.80;;;;;;5075735;28;20558;-76
2023/12/26 01:17:53;;;;;;;1.42;1.33;;;23.00;53.70;;;;;;5080837;28;20046;-78
2023/12/26 01:20:19;;;;;;;1.52;1.20;;;23.00;53.70;;;;;;5111503;28;20036;-78
2023/12/26 01:22:45;;;;;;;1.00;0.93;;;23.00;53.70;;;;;;5110697;28;20039;-75
2023/12/26 01:25:12;;;;;;;1.25;1.08;;;23.10;53.70;;;;;;5111543;28;20031;-78
2023/12/26 01:27:39;;;;;;;2.67;1.50;;;23.00;53.60;;;;;;5111583;28;20111;-78
2023/12/26 01:30:05;;;;;;;2.65;1.00;;;23.10;53.70;;;;;;5110421;28;20047;-78
2023/12/26 01:32:32;;;;;;;3.47;1.25;;;23.10;53.70;;;;;;5075306;28;20055;-79
2023/12/26 01:34:58;;;;;;;1.92;1.02;;;23.10;53.60;;;;;;5111010;28;20031;-75
2023/12/26 01:37:24;;;;;;;2.70;1.08;;;23.10;53.60;;;;;;5111816;28;20027;-77
2023/12/26 01:39:51;;;;;;;1.33;1.20;;;23.20;53.60;;;;;;5110811;28;20126;-78
2023/12/26 01:42:17;;;;;;;2.42;1.27;;;23.10;53.60;;;;;;5109528;28;20027;-77
2023/12/26 01:44:43;;;;;;;1.80;1.30;;;23.00;53.50;;;;;;5111545;28;20131;-79
2023/12/26 01:47:11;;;;;;;0.70;0.70;;;23.10;53.60;;;;;;5111602;28;20035;-79
2023/12/26 01:49:39;;;;;;;2.90;1.30;;;23.00;53.50;;;;;;5088181;28;20036;-78
2023/12/26 01:52:08;;;;;;;1.35;1.25;;;23.20;53.60;;;;;;5055452;28;20044;-78
2023/12/26 01:54:37;;;;;;;3.25;1.30;;;23.10;53.50;;;;;;5093342;28;20724;-78
2023/12/26 01:57:07;;;;;;;1.30;1.20;;;23.00;53.40;;;;;;5109533;28;20043;-78
2023/12/26 01:59:37;;;;;;;1.50;1.10;;;23.10;53.50;;;;;;5109859;28;20042;-75
2023/12/26 02:02:07;;;;;;;1.10;1.10;;;23.00;53.40;;;;;;5111243;28;20035;-79
2023/12/26 02:04:34;;;;;;;2.08;1.25;;;23.10;53.50;;;;;;5111429;28;20058;-79
2023/12/26 02:07:01;;;;;;;2.33;1.73;;;23.00;53.50;;;;;;5107324;28;20056;-78
2023/12/26 02:09:27;;;;;;;2.63;1.60;;;23.00;53.60;;;;;;5109470;28;20390;-78
2023/12/26 02:11:55;;;;;;;2.63;1.98;;;22.90;53.50;;;;;;5109710;28;20114;-79
2023/12/26 02:14:21;;;;;;;4.07;2.28;;;22.90;53.50;;;;;;5110936;28;20032;-78
2023/12/26 02:16:49;;;;;;;2.42;1.80;;;23.00;53.50;;;;;;5111035;28;20043;-78
2023/12/26 02:19:15;;;;;;;3.47;1.92;;;23.00;53.40;;;;;;5074975;28;20122;-77
2023/12/26 02:21:42;;;;;;;2.58;1.83;;;23.10;53.50;;;;;;5111122;28;20046;-78
2023/12/26 02:24:08;;;;;;;2.65;1.40;;;23.00;53.40;;;;;;5109415;28;20028;-78
2023/12/26 02:26:40;;;;;;;1.98;1.60;;;22.90;53.40;;;;;;5111058;28;20682;-79
2023/12/26 02:29:06;;;;;;;2.03;1.50;;;23.00;53.30;;;;;;5044246;28;20036;-78
2023/12/26 02:31:37;;;;;;;2.13;1.75;;;23.00;53.30;;;;;;5092174;28;20043;-78
2023/12/26 02:34:05;;;;;;;3.83;1.70;;;23.00;53.30;;;;;;5110661;28;20052;-77
2023/12/26 02:36:31;;;;;;;1.42;1.27;;;22.90;53.30;;;;;;5109810;28;20130;-77
2023/12/26 02:39:00;;;;;;;1.40;1.30;;;23.00;53.20;;;;;;5103682;28;20024;-78
2023/12/26 02:41:26;;;;;;;1.98;1.52;;;22.90;53.20;;;;;;5110658;28;20138;-78
2023/12/26 02:43:52;;;;;;;1.42;1.33;;;23.00;53.20;;;;;;5109604;28;20143;-79
2023/12/26 02:46:18;;;;;;;2.45;1.48;;;22.90;53.20;;;;;;5108262;28;20035;-77
2023/12/26 02:48:44;;;;;;;2.15;1.55;;;23.00;53.20;;;;;;5107979;28;20133;-78
2023/12/26 02:51:11;;;;;;;1.10;1.05;;;22.90;53.20;;;;;;5108232;28;20527;-72
2023/12/26 02:53:37;;;;;;;2.38;1.60;;;22.90;53.20;;;;;;5058796;28;20120;-79
2023/12/26 02:56:03;;;;;;;2.78;1.35;;;23.00;53.10;;;;;;5095029;28;20066;-77
2023/12/26 02:58:29;;;;;;;2.28;1.55;;;22.80;53.10;;;;;;5092848;28;20043;-77
2023/12/26 03:00:55;;;;;;;2.17;1.40;;;22.70;53.10;;;;;;5095178;28;20047;-77
2023/12/26 03:03:22;;;;;;;2.30;1.38;;;22.70;53.10;;;;;;5112024;28;20135;-78
2023/12/26 03:05:48;;;;;;;1.95;1.67;;;22.80;53.10;;;;;;5111656;28;20043;-79
2023/12/26 03:08:14;;;;;;;2.13;1.50;;;22.80;53.00;;;;;;5111282;28;20066;-78
2023/12/26 03:10:40;;;;;;;2.63;1.63;;;22.90;53.10;;;;;;5112003;28;20032;-78
2023/12/26 03:13:06;;;;;;;1.98;1.77;;;22.80;52.90;;;;;;5090860;28;20492;-79
2023/12/26 03:15:32;;;;;;;1.50;1.25;;;22.80;52.90;;;;;;5078415;28;20043;-79
2023/12/26 03:17:58;;;;;;;7.03;3.33;;;22.80;52.80;;;;;;5091467;28;20070;-78
2023/12/26 03:20:26;;;;;;;6.78;3.42;;;22.80;52.80;;;;;;5113893;28;20470;-78
2023/12/26 03:22:52;;;;;;;4.63;2.20;;;22.80;52.80;;;;;;5112272;28;20043;-78
2023/12/26 03:25:18;;;;;;;2.83;1.90;;;22.90;52.90;;;;;;5112606;28;20039;-76
2023/12/26 03:27:44;;;;;;;3.85;2.22;;;22.90;52.80;;;;;;5114248;27;20059;-76
2023/12/26 03:30:11;;;;;;;2.00;1.90;;;22.80;52.70;;;;;;5113988;28;20074;-78
2023/12/26 03:32:38;;;;;;;1.58;1.33;;;22.80;52.70;;;;;;5094398;28;20044;-78
2023/12/26 03:35:04;;;;;;;20.70;8.63;;;22.80;52.60;;;;;;5094816;28;20138;-78
2023/12/26 03:37:30;;;;;;;8.07;4.47;;;22.80;52.60;;;;;;5113678;28;20050;-78
2023/12/26 03:39:57;;;;;;;8.95;3.95;;;22.70;52.60;;;;;;5061514;28;20059;-78
2023/12/26 03:42:23;;;;;;;10.18;4.85;;;22.70;52.60;;;;;;5103475;28;20055;-76
2023/12/26 03:44:50;;;;;;;4.07;2.63;;;22.70;52.60;;;;;;5112476;28;20085;-78
2023/12/26 03:47:16;;;;;;;3.22;2.50;;;22.60;52.50;;;;;;5095856;28;20081;-78
2023/12/26 03:49:42;;;;;;;5.63;2.80;;;22.60;52.50;;;;;;5074023;28;20089;-78
2023/12/26 03:52:09;;;;;;;3.22;2.17;;;22.60;52.50;;;;;;5091881;28;20028;-76
2023/12/26 03:54:35;;;;;;;2.72;1.60;;;22.70;52.60;;;;;;5080929;28;20028;-78
2023/12/26 03:57:02;;;;;;;2.22;1.48;;;22.60;52.50;;;;;;5097146;28;20118;-78
2023/12/26 03:59:28;;;;;;;2.13;1.95;;;22.60;52.50;;;;;;5110920;28;20027;-77
2023/12/26 04:01:54;;;;;;;2.97;2.45;;;22.50;52.50;;;;;;5095034;28;20031;-76
2023/12/26 04:04:22;;;;;;;5.28;2.65;;;22.60;52.50;;;;;;5091998;28;20101;-78
2023/12/26 04:06:48;;;;;;;3.92;2.40;;;22.60;52.50;;;;;;5102265;28;20031;-78
2023/12/26 04:09:18;;;;;;;5.75;3.33;;;22.70;52.50;;;;;;5111556;28;20739;-78
2023/12/26 04:11:44;;;;;;;5.13;2.97;;;22.50;52.40;;;;;;5094820;28;20036;-78
2023/12/26 04:14:11;;;;;;;1.83;1.60;;;22.60;52.30;;;;;;5110998;28;20084;-78
2023/12/26 04:16:37;;;;;;;1.77;1.40;;;22.60;52.20;;;;;;5111656;28;20063;-79
2023/12/26 04:19:03;;;;;;;2.05;1.45;;;22.60;52.20;;;;;;5112844;28;20035;-79
2023/12/26 04:21:29;;;;;;;1.60;1.50;;;22.60;52.10;;;;;;5111656;28;20427;-78
2023/12/26 04:23:55;;;;;;;4.35;1.75;;;22.60;52.00;;;;;;5059782;28;20048;-79
2023/12/26 04:26:21;;;;;;;3.08;2.20;;;22.70;52.00;;;;;;5113221;28;20360;-78
2023/12/26 04:28:48;;;;;;;2.38;2.17;;;22.60;51.90;;;;;;5093324;28;20047;-77
2023/12/26 04:31:14;;;;;;;3.45;2.20;;;22.60;51.90;;;;;;5111819;28;20478;-78
2023/12/26 04:33:40;;;;;;;5.20;2.45;;;22.70;52.00;;;;;;5111064;28;20056;-79
2023/12/26 04:36:06;;;;;;;3.58;2.05;;;22.60;51.90;;;;;;5107958;28;20399;-78
2023/12/26 04:38:33;;;;;;;2.35;2.15;;;22.50;51.90;;;;;;5091339;28;20047;-78
2023/12/26 04:41:00;;;;;;;4.28;2.25;;;22.60;51.90;;;;;;5073184;28;20403;-79
2023/12/26 04:43:26;;;;;;;3.10;2.20;;;22.50;51.90;;;;;;5111101;28;20407;-78
2023/12/26 04:45:52;;;;;;;1.80;1.70;;;22.60;51.90;;;;;;5111766;28;20036;-78
2023/12/26 04:48:18;;;;;;;2.97;1.90;;;22.50;51.90;;;;;;5094293;28;20035;-78
2023/12/26 04:50:44;;;;;;;2.28;1.67;;;22.40;51.80;;;;;;5059758;28;20147;-78
2023/12/26 04:53:11;;;;;;;2.20;1.40;;;22.50;51.90;;;;;;5105832;28;20376;-78
2023/12/26 04:55:37;;;;;;;1.50;1.40;;;22.50;52.00;;;;;;5110810;28;20023;-78
2023/12/26 04:58:03;;;;;;;1.63;1.52;;;22.50;51.90;;;;;;5110582;28;20043;-79
2023/12/26 05:00:29;;;;;;;2.95;1.70;;;22.50;51.90;;;;;;5110416;28;20039;-78
2023/12/26 05:02:55;;;;;;;7.80;2.33;;;22.40;51.90;;;;;;5110816;28;20119;-73
2023/12/26 05:05:22;;;;;;;2.78;2.42;;;22.50;51.90;;;;;;5110821;28;20039;-79
2023/12/26 05:07:48;;;;;;;3.22;2.22;;;22.40;51.80;;;;;;5110723;28;20027;-78
2023/12/26 05:10:14;;;;;;;6.25;3.05;;;22.50;51.80;;;;;;5111865;28;20080;-76
2023/12/26 05:12:40;;;;;;;6.30;3.35;;;22.50;51.80;;;;;;5110324;28;20031;-78
2023/12/26 05:15:07;;;;;;;4.38;2.63;;;22.40;51.60;;;;;;5110529;28;20031;-78
2023/12/26 05:17:33;;;;;;;5.68;4.10;;;22.50;51.70;;;;;;5111679;28;20031;-78
2023/12/26 05:20:01;;;;;;;10.70;7.85;;;22.40;51.50;;;;;;5111133;28;20096;-79
2023/12/26 05:22:27;;;;;;;5.28;4.13;;;22.40;51.50;;;;;;5111645;28;20170;-78
2023/12/26 05:24:53;;;;;;;4.40;3.05;;;22.50;51.50;;;;;;5110710;28;20091;-78
2023/12/26 05:27:20;;;;;;;6.60;2.67;;;22.50;51.40;;;;;;5110161;28;20118;-78
2023/12/26 05:29:46;;;;;;;3.90;2.70;;;22.60;51.40;;;;;;5110567;28;20038;-79
2023/12/26 05:32:12;;;;;;;4.40;3.05;;;22.40;51.40;;;;;;5111612;28;20032;-78
2023/12/26 05:34:38;;;;;;;4.10;2.53;;;22.40;51.40;;;;;;5110132;28;20118;-78
2023/12/26 05:37:04;;;;;;;4.88;3.13;;;22.40;51.40;;;;;;5110151;28;20034;-75
2023/12/26 05:39:31;;;;;;;4.15;3.10;;;22.50;51.50;;;;;;5110060;28;20031;-78
2023/12/26 05:41:57;;;;;;;3.60;2.92;;;22.30;51.40;;;;;;5109721;28;20031;-78
2023/12/26 05:44:24;;;;;;;2.67;2.47;;;22.30;51.40;;;;;;5110193;28;20116;-79
2023/12/26 05:46:50;;;;;;;5.97;3.63;;;22.30;51.40;;;;;;5110863;28;20372;-78
2023/12/26 05:49:16;;;;;;;8.80;5.95;;;22.30;51.40;;;;;;5109933;28;20465;-79
2023/12/26 05:51:43;;;;;;;7.03;4.32;;;22.20;51.20;;;;;;5075799;28;20057;-78
2023/12/26 05:54:09;;;;;;;6.68;4.43;;;22.20;51.20;;;;;;5111004;28;20482;-78
2023/12/26 05:56:35;;;;;;;5.20;3.15;;;22.20;51.20;;;;;;5109965;28;20115;-78
2023/12/26 05:59:01;;;;;;;3.67;3.00;;;22.30;51.20;;;;;;5110060;28;20081;-78
2023/12/26 06:01:28;;;;;;;3.70;3.20;;;22.30;51.20;;;;;;5085642;28;20086;-78
2023/12/26 06:03:54;;;;;;;3.15;2.42;;;22.20;51.10;;;;;;5071860;28;20063;-79
2023/12/26 06:06:21;;;;;;;5.63;2.88;;;22.30;51.10;;;;;;5089788;28;20036;-76
2023/12/26 06:08:47;;;;;;;5.95;3.35;;;22.30;51.10;;;;;;5105655;28;20035;-78
2023/12/26 06:11:14;;;;;;;3.40;2.80;;;22.40;51.00;;;;;;5109869;28;20075;-76
2023/12/26 06:13:41;;;;;;;3.30;2.60;;;22.30;51.00;;;;;;5105536;28;20124;-78
2023/12/26 06:16:07;;;;;;;3.65;2.42;;;22.30;51.10;;;;;;5100607;28;20048;-79
2023/12/26 06:18:34;;;;;;;3.22;1.65;;;22.30;51.00;;;;;;5100950;28;20092;-77
2023/12/26 06:21:01;;;;;;;3.08;1.38;;;22.30;45.50;;;;;;5099917;28;20046;-77
2023/12/26 06:23:27;;;;;;;2.08;1.60;;;22.20;44.00;;;;;;5086433;28;20050;-78
2023/12/26 06:25:57;;;;;;;2.28;2.08;;;22.20;43.60;;;;;;5100320;28;20066;-83
2023/12/26 06:28:23;;;;;;;2.15;1.95;;;22.30;48.90;;;;;;5085951;28;20107;-79
2023/12/26 06:30:50;;;;;;;2.70;1.90;;;22.40;47.90;;;;;;5105882;28;20030;-83
2023/12/26 06:33:17;;;;;;;2.38;1.92;;;22.60;48.30;;;;;;5086486;28;20059;-78
2023/12/26 06:35:43;;;;;;;2.33;2.13;;;22.70;53.00;;;;;;5085398;28;20443;-78
2023/12/26 06:38:12;;;;;;;2.40;2.20;;;22.60;52.10;;;;;;5103738;28;20024;-80
2023/12/26 06:40:42;;;;;;;2.47;2.28;;;22.60;49.80;;;;;;5070088;28;20083;-78
2023/12/26 06:43:14;;;;;;;2.05;1.85;;;22.70;44.80;;;;;;5102894;28;20461;-76
2023/12/26 06:45:41;;;;;;;3.80;2.00;;;22.60;43.90;;;;;;5127382;27;20028;-77
2023/12/26 06:48:07;;;;;;;3.65;2.60;;;22.90;47.00;;;;;;5099004;28;20043;-79
2023/12/26 06:50:35;;;;;;;2.80;2.38;;;22.90;46.10;;;;;;5074656;28;20038;-77
2023/12/26 06:53:02;;;;;;;5.13;2.50;;;22.80;46.90;;;;;;5112414;28;20526;-76
2023/12/26 06:55:28;;;;;;;4.80;3.47;;;22.90;47.40;;;;;;5107020;28;20130;-78
2023/12/26 06:57:55;;;;;;;5.97;3.50;;;22.80;50.10;;;;;;5108655;28;20078;-77
2023/12/26 07:00:21;;;;;;;7.03;3.22;;;22.80;54.60;;;;;;5092863;28;20491;-79
2023/12/26 07:02:48;;;;;;;4.95;3.60;;;22.90;53.00;;;;;;5094230;28;20036;-74
2023/12/26 07:05:14;;;;;;;4.68;3.53;;;22.80;52.90;;;;;;5107091;28;20130;-74
2023/12/26 07:07:40;;;;;;;8.52;3.30;;;22.90;53.10;;;;;;5112648;28;20375;-76
2023/12/26 07:10:06;;;;;;;3.80;3.17;;;22.90;53.20;;;;;;5109686;28;20027;-76
2023/12/26 07:12:33;;;;;;;4.53;3.08;;;22.80;53.10;;;;;;5112565;28;20032;-75
2023/12/26 07:14:59;;;;;;;5.68;3.17;;;22.80;53.10;;;;;;5094387;28;20039;-75
2023/12/26 07:17:25;;;;;;;5.75;3.80;;;22.90;53.30;;;;;;5093834;28;20056;-74
2023/12/26 07:19:51;;;;;;;6.82;4.15;;;22.90;53.30;;;;;;5103826;28;20510;-76
2023/12/26 07:22:17;;;;;;;9.23;3.78;;;22.90;53.50;;;;;;5105039;28;20035;-78
2023/12/26 07:24:44;;;;;;;4.20;2.90;;;22.90;53.40;;;;;;5114304;28;20115;-75
2023/12/26 07:27:10;;;;;;;7.70;5.32;;;22.90;53.50;;;;;;5113544;28;20055;-77
2023/12/26 07:29:36;;;;;;;6.78;5.20;;;22.80;53.60;;;;;;5114458;28;20027;-79
2023/12/26 07:32:03;;;;;;;8.85;5.03;;;22.90;53.50;;;;;;5114374;28;20395;-79
2023/12/26 07:34:29;;;;;;;5.85;4.30;;;22.80;55.70;;;;;;5094958;28;20149;-77
2023/12/26 07:36:55;;;;;;;18.15;7.65;;;22.90;58.90;;;;;;5114060;28;20511;-76
2023/12/26 07:39:21;;;;;;;13.15;6.40;;;22.70;58.10;;;;;;5113757;28;20103;-80
2023/12/26 07:41:47;;;;;;;8.80;5.40;;;22.70;57.30;;;;;;5114357;28;20084;-79
2023/12/26 07:44:14;;;;;;;7.35;4.40;;;22.70;56.80;;;;;;5113022;28;20043;-78
2023/12/26 07:46:40;;;;;;;7.75;4.00;;;22.80;56.40;;;;;;5095053;28;20048;-77
2023/12/26 07:49:06;;;;;;;6.65;4.15;;;22.80;56.20;;;;;;5114192;28;20031;-82
2023/12/26 07:51:33;;;;;;;7.63;4.43;;;22.70;55.60;;;;;;5104828;28;20032;-80
2023/12/26 07:54:02;;;;;;;5.88;4.28;;;22.80;55.60;;;;;;5113514;28;20352;-82
2023/12/26 07:56:28;;;;;;;5.07;4.05;;;22.70;56.40;;;;;;5114126;28;20085;-82
2023/12/26 07:58:55;;;;;;;7.20;4.45;;;22.60;56.10;;;;;;5110559;28;20348;-80
2023/12/26 08:01:25;;;;;;;4.88;3.70;;;22.70;56.00;;;;;;5097948;28;20178;-79
2023/12/26 08:03:51;;;;;;;7.55;4.10;;;22.90;56.00;;;;;;5093575;28;20116;-80
2023/12/26 08:06:17;;;;;;;6.13;4.43;;;22.80;56.10;;;;;;5074061;28;20055;-79
2023/12/26 08:08:43;;;;;;;6.82;4.15;;;22.70;56.10;;;;;;5092720;28;20395;-79
2023/12/26 08:11:09;;;;;;;6.40;4.28;;;22.80;56.10;;;;;;5111154;28;20039;-82
2023/12/26 08:13:36;;;;;;;6.10;3.78;;;22.90;56.10;;;;;;5111184;28;20114;-80
2023/12/26 08:16:04;;;;;;;4.05;3.00;;;22.80;55.90;;;;;;5110565;28;20548;-81
2023/12/26 08:18:30;;;;;;;5.53;3.38;;;22.80;55.90;;;;;;5093619;28;20035;-78
2023/12/26 08:20:56;;;;;;;5.93;3.13;;;22.90;56.00;;;;;;5093737;28;20110;-81
2023/12/26 08:23:22;;;;;;;2.83;2.28;;;22.80;56.00;;;;;;5110581;28;20124;-77
2023/12/26 08:25:48;;;;;;;3.35;1.88;;;22.90;55.80;;;;;;5093262;28;20502;-79
2023/12/26 08:28:15;;;;;;;1.92;1.70;;;22.90;56.00;;;;;;5107487;28;20415;-76
2023/12/26 08:30:41;;;;;;;3.08;2.03;;;22.80;56.60;;;;;;5110458;28;20594;-73
2023/12/26 08:33:07;;;;;;;2.80;1.80;;;22.80;56.40;;;;;;5042090;28;20131;-74
2023/12/26 08:35:34;;;;;;;4.30;2.13;;;22.80;56.20;;;;;;5090056;28;20476;-73
2023/12/26 08:38:01;;;;;;;2.47;1.63;;;22.70;56.30;;;;;;5087140;28;20329;-74
2023/12/26 08:40:27;;;;;;;2.58;2.03;;;22.80;56.20;;;;;;5092577;28;20085;-76
2023/12/26 08:42:53;;;;;;;3.38;2.30;;;22.70;57.30;;;;;;5107434;28;20031;-75
2023/12/26 08:45:19;;;;;;;2.17;1.83;;;22.70;57.00;;;;;;5112667;28;20035;-75
2023/12/26 08:47:46;;;;;;;2.35;1.83;;;22.80;56.80;;;;;;5072763;28;20040;-75
2023/12/26 08:50:12;;;;;;;4.07;2.08;;;22.70;56.60;;;;;;5088599;28;20175;-76
2023/12/26 08:52:38;;;;;;;4.40;2.00;;;22.70;56.50;;;;;;5089114;28;20036;-77
2023/12/26 08:55:04;;;;;;;3.53;2.15;;;22.70;56.30;;;;;;5089875;28;20043;-76
2023/12/26 08:57:31;;;;;;;2.28;2.03;;;22.70;56.10;;;;;;5072723;28;20055;-76
2023/12/26 08:59:57;;;;;;;3.83;2.30;;;22.70;56.00;;;;;;5089328;28;20036;-76
2023/12/26 09:02:23;;;;;;;3.28;2.30;;;22.70;55.40;;;;;;5055719;28;20040;-76
2023/12/26 09:04:49;;;;;;;2.17;1.92;;;22.70;55.50;;;;;;5089019;28;20422;-76
2023/12/26 09:07:15;;;;;;;2.42;1.70;;;22.70;55.60;;;;;;5089102;28;20089;-75
2023/12/26 09:09:41;;;;;;;2.75;2.45;;;22.90;55.60;;;;;;5072584;28;20047;-77
2023/12/26 09:12:07;;;;;;;3.90;2.20;;;22.70;55.50;;;;;;5089566;28;20551;-76
2023/12/26 09:14:35;;;;;;;4.90;2.63;;;22.80;55.50;;;;;;5088539;28;20028;-75
2023/12/26 09:17:01;;;;;;;4.15;2.70;;;22.90;55.60;;;;;;5089244;28;20067;-75
2023/12/26 09:19:28;;;;;;;4.47;2.45;;;22.80;55.50;;;;;;5072410;28;20139;-76
2023/12/26 09:21:55;;;;;;;4.03;2.70;;;22.80;55.40;;;;;;5088816;28;20036;-75
2023/12/26 09:24:21;;;;;;;5.35;2.88;;;22.80;55.40;;;;;;5058200;28;20047;-76
2023/12/26 09:26:47;;;;;;;4.15;2.70;;;22.80;55.30;;;;;;5112135;28;20035;-74
2023/12/26 09:29:13;;;;;;;3.20;2.33;;;22.70;55.30;;;;;;5111816;28;20019;-76
2023/12/26 09:31:39;;;;;;;4.35;2.63;;;22.80;55.20;;;;;;5111679;28;20027;-78
2023/12/26 09:34:05;;;;;;;6.70;2.20;;;22.70;55.20;;;;;;5105553;28;20024;-75
2023/12/26 09:36:32;;;;;;;3.33;2.15;;;22.80;55.10;;;;;;5098942;28;20028;-77
2023/12/26 09:38:58;;;;;;;3.15;2.42;;;22.70;55.00;;;;;;5109729;28;20051;-77
2023/12/26 09:41:25;;;;;;;2.67;2.08;;;22.80;55.30;;;;;;5111581;28;20046;-76
2023/12/26 09:43:52;;;;;;;4.32;2.13;;;22.80;54.80;;;;;;5111031;28;20110;-76
2023/12/26 09:46:19;;;;;;;3.05;2.10;;;22.80;54.80;;;;;;5111152;28;20038;-76
2023/12/26 09:48:45;;;;;;;2.45;2.00;;;22.60;54.70;;;;;;5111106;28;20123;-76
2023/12/26 09:51:24;;;;;;;3.03;1.90;;;22.70;54.80;;;;;;5091644;28;20055;-76
2023/12/26 09:53:57;;;;;;;3.28;1.70;;;22.60;54.80;;;;;;5110724;28;20024;-76
2023/12/26 09:56:29;;;;;;;3.90;2.10;;;22.70;54.90;;;;;;5111414;28;20049;-74
2023/12/26 09:58:55;;;;;;;1.67;1.45;;;22.60;54.80;;;;;;5099512;28;20525;-75
2023/12/26 10:01:22;;;;;;;3.38;1.77;;;22.70;55.00;;;;;;5088657;28;20082;-73
2023/12/26 10:03:48;;;;;;;2.15;1.95;;;22.70;55.40;;;;;;5090604;28;20109;-75
2023/12/26 10:06:14;;;;;;;2.40;2.00;;;22.70;54.90;;;;;;5091629;28;20028;-76
2023/12/26 10:08:42;;;;;;;3.75;1.92;;;22.80;54.80;;;;;;5111156;28;20035;-76
2023/12/26 10:11:13;;;;;;;3.72;2.10;;;22.70;54.80;;;;;;5076338;28;20491;-75
2023/12/26 10:13:52;;;;;;;2.63;2.13;;;22.70;55.40;;;;;;5109724;28;20374;-77
2023/12/26 10:16:19;;;;;;;3.58;2.30;;;22.90;55.40;;;;;;5068185;28;20048;-76
2023/12/26 10:18:46;;;;;;;3.55;1.80;;;22.80;55.10;;;;;;5068184;28;20048;-77
2023/12/26 10:21:13;;;;;;;2.20;2.00;;;22.80;54.50;;;;;;5068325;28;20040;-76
2023/12/26 10:23:40;;;;;;;2.65;2.03;;;22.60;54.40;;;;;;5067781;28;20044;-74
2023/12/26 10:26:07;;;;;;;2.55;1.25;;;22.80;54.50;;;;;;5068281;28;20536;-76
2023/12/26 10:28:40;;;;;;;2.78;2.00;;;22.90;55.10;;;;;;5051436;28;20045;-77
2023/12/26 10:31:17;;;;;;;1.63;1.40;;;22.80;55.00;;;;;;5068391;28;20045;-76
2023/12/26 10:33:44;;;;;;;2.00;1.40;;;22.70;54.90;;;;;;5067954;28;20484;-75
2023/12/26 10:36:11;;;;;;;1.58;1.08;;;22.80;54.90;;;;;;5067733;28;20036;-76
2023/12/26 10:38:39;;;;;;;2.00;1.67;;;22.70;54.90;;;;;;5047989;28;20120;-76
2023/12/26 10:41:08;;;;;;;3.78;1.73;;;22.80;54.90;;;;;;5050433;28;20053;-76
2023/12/26 10:43:42;;;;;;;5.25;2.47;;;22.70;54.90;;;;;;5047965;28;20120;-76
2023/12/26 10:46:08;;;;;;;3.28;1.90;;;22.70;54.90;;;;;;5031241;28;20041;-76
2023/12/26 10:48:36;;;;;;;2.25;1.52;;;22.70;54.80;;;;;;5031022;28;20036;-76
2023/12/26 10:51:03;;;;;;;2.00;1.77;;;22.60;54.80;;;;;;5015806;28;20072;-76
2023/12/26 10:53:43;;;;;;;2.58;2.10;;;22.70;55.00;;;;;;5084530;28;20391;-76
2023/12/26 10:56:12;;;;;;;5.05;2.10;;;22.60;54.90;;;;;;5110770;28;20115;-76
2023/12/26 10:58:39;;;;;;;2.65;1.73;;;22.70;54.50;;;;;;5111041;28;20035;-76
2023/12/26 11:01:08;;;;;;;3.60;2.30;;;22.60;54.60;;;;;;5091381;28;20511;-75
2023/12/26 13:51:32;;;;;;;1.38;1.13;;;23.40;52.40;;;;;;5091261;28;20039;-73
2023/12/26 13:53:58;;;;;;;2.90;0.70;;;23.30;52.80;;;;;;5091373;28;20042;-72
2023/12/26 13:57:02;;;;;;;1.88;1.10;;;23.20;52.80;;;;;;5089829;28;20028;-73
2023/12/26 14:00:05;;;;;;;2.13;1.35;;;23.40;53.10;;;;;;5109713;28;20031;-73
2023/12/26 14:02:38;;;;;;;24.50;3.88;;;23.30;53.30;;;;;;5111505;28;20126;-73
2023/12/26 14:05:04;;;;;;;2.22;1.60;;;23.20;53.60;;;;;;5111251;28;20040;-75
2023/12/26 14:07:31;;;;;;;2.88;1.25;;;23.30;53.60;;;;;;5111532;28;20534;-76
2023/12/26 14:09:57;;;;;;;2.88;2.20;;;23.30;55.00;;;;;;5111653;28;20037;-78
2023/12/26 14:12:24;;;;;;;2.80;1.98;;;23.20;56.40;;;;;;5111770;28;20032;-75
2023/12/26 14:14:50;;;;;;;4.85;1.77;;;23.20;55.90;;;;;;5092061;28;20048;-74
2023/12/26 14:17:54;;;;;;;3.10;1.83;;;23.20;55.40;;;;;;5092504;28;20105;-73
2023/12/26 14:20:58;;;;;;;2.78;2.13;;;23.20;55.20;;;;;;5091229;28;20028;-74
2023/12/26 14:24:01;;;;;;;2.97;1.92;;;23.20;55.00;;;;;;5090940;28;20032;-73
2023/12/26 14:26:29;;;;;;;2.42;1.90;;;23.10;54.80;;;;;;5091147;28;20101;-73
2023/12/26 14:28:56;;;;;;;4.22;2.53;;;23.20;54.60;;;;;;5089915;28;20063;-72
2023/12/26 14:31:24;;;;;;;5.40;2.05;;;23.10;54.50;;;;;;5071972;28;20437;-73
2023/12/26 14:34:27;;;;;;;7.13;2.35;;;23.30;54.50;;;;;;5091257;28;20035;-74
2023/12/26 14:36:53;;;;;;;3.75;1.80;;;23.20;54.30;;;;;;5091003;28;20074;-74
2023/12/26 14:39:19;;;;;;;3.15;2.33;;;23.20;54.20;;;;;;5091393;28;20082;-74
2023/12/26 14:41:45;;;;;;;3.47;1.83;;;23.20;54.10;;;;;;5091015;28;20043;-73
2023/12/26 14:44:49;;;;;;;1.27;1.17;;;23.20;54.00;;;;;;5088710;28;20158;-73
2023/12/26 14:47:34;;;;;;;;;;;23.10;54.00;;;;;;5091895;28;20024;-74
2023/12/26 14:50:37;;;;;;;1.88;1.40;;;23.20;54.00;;;;;;5094880;28;19908;-74
2023/12/26 14:53:41;;;;;;;2.53;1.60;;;23.10;53.90;;;;;;5095042;28;20036;-73
2023/12/26 14:56:26;;;;;;;;;;;23.20;53.80;;;;;;5095266;28;20044;-73
2023/12/26 14:59:29;;;;;;;3.42;1.15;;;23.20;53.80;;;;;;5094877;28;19919;-72
2023/12/26 15:02:01;;;;;;;1.02;0.82;;;23.20;53.80;;;;;;5094494;28;20032;-73
2023/12/26 15:04:28;;;;;;;2.13;1.00;;;23.20;53.80;;;;;;5094630;28;20040;-72
2023/12/26 15:06:59;;;;;;;1.58;1.20;;;23.20;53.80;;;;;;5094305;28;20387;-72
2023/12/26 15:09:26;;;;;;;1.60;1.45;;;23.20;53.70;;;;;;5094599;28;20035;-73
2023/12/26 15:11:52;;;;;;;2.30;1.27;;;23.20;53.30;;;;;;5058349;28;20400;-73
2023/12/26 15:14:19;;;;;;;1.13;0.93;;;23.40;53.20;;;;;;5099859;28;20031;-73
2023/12/26 15:16:45;;;;;;;10.02;1.48;;;23.30;53.10;;;;;;5114854;28;20165;-72
2023/12/26 15:19:11;;;;;;;3.53;1.00;;;23.20;52.80;;;;;;5095607;28;20127;-72
2023/12/26 15:21:44;;;;;;;1.60;1.50;;;23.20;52.40;;;;;;5114585;28;20035;-72
2023/12/26 15:24:13;;;;;;;5.15;1.98;;;23.20;52.30;;;;;;5114910;28;20061;-72
2023/12/26 15:26:40;;;;;;;2.47;0.90;;;23.00;51.80;;;;;;5096345;28;20685;-71
2023/12/26 15:29:06;;;;;;;2.10;1.33;;;23.00;52.00;;;;;;5114851;28;20043;-70
2023/12/26 15:31:32;;;;;;;1.90;0.75;;;23.10;52.00;;;;;;5114799;28;20043;-72
2023/12/26 15:33:58;;;;;;;1.73;1.45;;;23.10;52.00;;;;;;5114555;28;20023;-74
2023/12/26 15:36:25;;;;;;;1.27;1.13;;;23.00;52.00;;;;;;5113474;28;20031;-73
2023/12/26 15:38:53;;;;;;;1.10;0.93;;;23.00;51.70;;;;;;5112702;28;20046;-73
2023/12/26 15:41:21;;;;;;;2.80;1.20;;;23.10;51.50;;;;;;5077874;28;20399;-71